Time;durP1;ratioP1;P1;durP2;ratioP2;P2;SDS_P1;SDS_P2;PMS_P1;PMS_P2;Temp;Humidity;BMP_temperature;BMP_pressure;BME280_temperature;BME280_humidity;BME280_pressure;Samples;Min_cycle;Max_cycle;Signal;HPM_P1;HPM_P2
2022/08/15 00:01:39;;;;;;;10.32;5.87;;;;;;;24.08;46.87;98907.22;7631641;32;39392;-75
2022/08/15 00:06:07;;;;;;;9.02;5.53;;;;;;;24.21;46.64;98904.94;7631805;32;39943;-75
2022/08/15 00:10:44;;;;;;;9.57;5.75;;;;;;;24.17;47.14;98904.13;7631036;32;38215;-75
2022/08/15 00:15:19;;;;;;;10.60;5.53;;;;;;;24.10;47.53;98909.63;7631940;32;37880;-75
2022/08/15 00:19:39;;;;;;;10.20;5.70;;;;;;;23.88;48.26;98909.41;7631811;32;39066;-76
2022/08/15 00:23:57;;;;;;;9.48;5.45;;;;;;;23.89;48.28;98908.25;7631800;32;40538;-76
2022/08/15 00:28:13;;;;;;;11.15;5.93;;;;;;;23.58;49.32;98901.94;7631813;32;37759;-75
2022/08/15 00:32:36;;;;;;;9.70;5.53;;;;;;;23.71;48.68;98894.09;7631654;32;37360;-75
2022/08/15 00:37:12;;;;;;;9.43;5.60;;;;;;;23.81;48.15;98895.44;7631257;32;39603;-75
2022/08/15 00:41:39;;;;;;;9.63;5.70;;;;;;;23.70;48.43;98900.06;7631104;32;40644;-75
2022/08/15 00:45:57;;;;;;;8.48;5.47;;;;;;;23.93;47.63;98900.72;7631190;32;38054;-75
2022/08/15 00:50:14;;;;;;;10.70;5.60;;;;;;;23.92;47.26;98899.12;7631344;32;37381;-76
2022/08/15 00:54:59;;;;;;;9.63;5.50;;;;;;;23.76;47.59;98902.09;7631312;32;39470;-75
2022/08/15 00:59:24;;;;;;;8.80;5.28;;;;;;;23.92;47.06;98893.56;7618181;32;39857;-75
2022/08/15 01:03:48;;;;;;;10.05;5.90;;;;;;;23.74;47.38;98895.34;7631219;32;38727;-76
2022/08/15 01:08:10;;;;;;;9.20;5.65;;;;;;;23.69;47.65;98895.69;7630855;32;37789;-75
2022/08/15 01:12:26;;;;;;;9.00;5.40;;;;;;;23.67;47.63;98895.28;7617715;32;39298;-75
2022/08/15 01:16:42;;;;;;;12.80;5.93;;;;;;;23.49;48.24;98890.31;7631054;32;39959;-75
2022/08/15 01:21:04;;;;;;;10.20;5.82;;;;;;;23.60;47.85;98888.44;7617457;32;37853;-74
2022/08/15 01:25:22;;;;;;;11.18;6.20;;;;;;;23.49;48.31;98887.53;7618017;32;37883;-76
2022/08/15 01:29:59;;;;;;;8.88;5.40;;;;;;;23.22;49.12;98884.03;7619311;32;39786;-75
2022/08/15 01:34:19;;;;;;;8.45;5.47;;;;;;;23.24;49.07;98892.81;7630552;32;39956;-74
2022/08/15 01:38:41;;;;;;;10.43;6.28;;;;;;;22.84;50.46;98906.16;7629970;32;37991;-75
2022/08/15 01:43:21;;;;;;;10.43;5.93;;;;;;;22.88;50.29;98898.66;7631732;32;37265;-75
2022/08/15 01:48:06;;;;;;;10.88;6.12;;;;;;;23.00;49.76;98905.97;7620759;32;39141;-75
2022/08/15 01:52:43;;;;;;;12.98;6.50;;;;;;;23.02;49.69;98906.38;7623574;32;39990;-75
2022/08/15 01:57:19;;;;;;;9.75;5.90;;;;;;;22.49;51.59;98909.22;7632993;32;37994;-75
2022/08/15 02:01:47;;;;;;;11.77;5.82;;;;;;;22.80;50.58;98912.84;7619838;32;37063;-74
2022/08/15 02:06:13;;;;;;;11.18;6.37;;;;;;;22.88;50.01;98898.66;7621929;32;39284;-74
2022/08/15 02:10:29;;;;;;;8.95;5.43;;;;;;;22.65;51.04;98901.53;7850611;27;40719;-75
2022/08/15 02:14:45;;;;;;;11.23;6.10;;;;;;;22.81;50.42;98900.56;7633137;32;37968;-75
2022/08/15 02:19:03;;;;;;;10.40;5.87;;;;;;;22.91;50.17;98901.91;7633320;32;37574;-75
2022/08/15 02:23:27;;;;;;;12.00;6.32;;;;;;;22.79;50.55;98895.37;7633301;32;39585;-75
2022/08/15 02:27:45;;;;;;;12.30;5.87;;;;;;;22.95;50.00;98894.41;7633100;32;39879;-74
2022/08/15 02:32:16;;;;;;;11.63;5.80;;;;;;;22.62;51.09;98899.50;7632913;32;38283;-75
2022/08/15 02:36:35;;;;;;;10.55;6.55;;;;;;;22.78;50.59;98904.09;7632904;32;37004;-75
2022/08/15 02:41:09;;;;;;;10.23;6.65;;;;;;;22.71;50.66;98898.44;7633257;32;40011;-75
2022/08/15 02:45:26;;;;;;;11.20;6.43;;;;;;;22.67;50.73;98898.38;7632810;32;39902;-75
2022/08/15 02:49:43;;;;;;;10.18;6.30;;;;;;;22.74;50.36;98903.25;7632662;32;37939;-75
2022/08/15 02:54:05;;;;;;;9.68;6.43;;;;;;;22.46;51.49;98905.22;7631779;32;38049;-74
2022/08/15 02:58:41;;;;;;;10.60;6.60;;;;;;;22.54;51.63;98888.66;7632221;32;40994;-75
2022/08/15 03:03:05;;;;;;;11.20;6.10;;;;;;;22.46;51.77;98885.78;7632222;32;40944;-75
2022/08/15 03:07:22;;;;;;;10.75;6.35;;;;;;;22.45;51.73;98877.81;7632594;32;38129;-75
2022/08/15 03:11:40;;;;;;;11.70;6.30;;;;;;;22.40;51.85;98878.94;7632031;32;37001;-75
2022/08/15 03:16:15;;;;;;;9.65;5.57;;;;;;;22.55;51.02;98879.97;7632588;32;39394;-77
2022/08/15 03:20:36;;;;;;;8.70;5.80;;;;;;;22.40;51.10;98878.13;7632476;32;39034;-76
2022/08/15 03:24:54;;;;;;;9.23;5.40;;;;;;;22.48;50.16;98875.09;7618757;32;38012;-78
2022/08/15 03:29:10;;;;;;;10.38;5.75;;;;;;;22.47;50.17;98889.34;7632401;32;37048;-79
2022/08/15 03:33:33;;;;;;;8.30;5.90;;;;;;;22.57;49.67;98887.91;7632254;32;39296;-78
2022/08/15 03:38:09;;;;;;;8.13;5.60;;;;;;;22.70;49.27;98897.63;7631730;32;40130;-78
2022/08/15 03:42:29;;;;;;;10.73;6.45;;;;;;;22.44;50.03;98890.91;7631609;32;38777;-77
2022/08/15 03:47:05;;;;;;;10.52;5.75;;;;;;;22.67;49.82;98892.81;7631802;32;37723;-78
2022/08/15 03:51:22;;;;;;;10.55;5.87;;;;;;;22.58;49.93;98895.87;7632003;32;39405;-77
2022/08/15 03:55:40;;;;;;;10.25;5.85;;;;;;;22.57;50.10;98899.03;7631757;32;39935;-78
2022/08/15 03:59:58;;;;;;;9.80;5.93;;;;;;;22.38;51.42;98895.16;7631995;32;38760;-78
2022/08/15 04:04:15;;;;;;;9.93;6.78;;;;;;;22.60;50.51;98901.84;7631366;32;37091;-78
2022/08/15 04:08:34;;;;;;;10.05;6.22;;;;;;;22.44;51.42;98904.00;7631801;32;39866;-78
2022/08/15 04:13:11;;;;;;;9.07;5.82;;;;;;;22.36;51.62;98905.84;7631378;32;40275;-77
2022/08/15 04:17:28;;;;;;;11.12;6.07;;;;;;;22.56;50.86;98903.78;7631246;32;38657;-78
2022/08/15 04:22:06;;;;;;;11.18;6.00;;;;;;;22.53;51.23;98904.53;7631460;32;38259;-78
2022/08/15 04:26:22;;;;;;;11.73;6.93;;;;;;;22.54;51.83;98905.31;7631677;32;40240;-78
2022/08/15 04:30:45;;;;;;;10.88;6.40;;;;;;;22.58;52.33;98895.87;7631604;32;40161;-78
2022/08/15 04:35:02;;;;;;;9.07;5.72;;;;;;;22.55;51.84;98901.38;7631427;32;38522;-78
2022/08/15 04:39:20;;;;;;;10.70;5.55;;;;;;;22.57;51.48;98902.59;7631728;32;37146;-78
2022/08/15 04:43:38;;;;;;;8.93;5.65;;;;;;;22.57;50.85;98894.25;7617417;32;39095;-77
2022/08/15 04:47:55;;;;;;;9.25;5.78;;;;;;;22.57;50.65;98894.25;7631542;32;39057;-75
2022/08/15 04:52:19;;;;;;;8.93;5.80;;;;;;;22.63;50.49;98905.88;7630655;32;38146;-74
2022/08/15 04:56:36;;;;;;;9.23;5.78;;;;;;;22.66;50.12;98903.16;7631605;32;36624;-75
2022/08/15 05:01:09;;;;;;;9.82;5.90;;;;;;;22.69;50.31;98898.81;7631361;32;39268;-74
2022/08/15 05:05:25;;;;;;;11.07;5.95;;;;;;;22.74;50.48;98903.25;7631288;32;39642;-75
2022/08/15 05:09:57;;;;;;;11.73;5.70;;;;;;;22.65;50.95;98895.19;7618802;32;37596;-74
2022/08/15 05:14:26;;;;;;;9.67;5.87;;;;;;;22.62;51.04;98888.37;7631087;32;37076;-74
2022/08/15 05:18:53;;;;;;;11.50;6.20;;;;;;;21.97;53.42;98900.41;7630131;32;39416;-74
2022/08/15 05:23:14;;;;;;;9.82;6.00;;;;;;;22.22;53.80;98900.84;7630984;32;40035;-74
2022/08/15 05:27:30;;;;;;;9.70;6.22;;;;;;;22.34;53.14;98899.88;7630922;32;37845;-75
2022/08/15 05:31:50;;;;;;;13.15;5.72;;;;;;;22.68;52.45;98895.22;7630707;32;37122;-76
2022/08/15 05:36:08;;;;;;;10.05;6.25;;;;;;;22.87;51.92;98902.63;7630639;32;40086;-74
2022/08/15 05:41:05;;;;;;;18.75;7.35;;;;;;;22.82;50.73;98894.63;7630482;32;40825;-75
2022/08/15 05:45:35;;;;;;;11.20;6.37;;;;;;;22.80;52.64;98910.06;7623744;32;38375;-75
2022/08/15 05:50:14;;;;;;;11.93;6.62;;;;;;;22.63;54.20;98903.87;7629098;32;37707;-77
2022/08/15 05:54:46;;;;;;;9.63;6.12;;;;;;;23.18;52.49;98900.69;7615417;32;39218;-76
2022/08/15 05:59:11;;;;;;;10.00;6.40;;;;;;;22.78;52.52;98904.09;7644135;32;40010;-76
2022/08/15 06:03:34;;;;;;;10.50;5.82;;;;;;;22.77;53.54;98903.28;7629524;32;37928;-77
2022/08/15 06:07:58;;;;;;;9.73;6.50;;;;;;;23.11;52.71;98908.12;7629493;32;37198;-75
2022/08/15 06:12:37;;;;;;;16.12;6.07;;;;;;;23.49;51.91;98904.22;7616394;32;40215;-77
2022/08/15 06:16:56;;;;;;;11.30;6.40;;;;;;;23.53;52.21;98905.06;7592239;32;40165;-75
2022/08/15 06:21:40;;;;;;;14.02;6.53;;;;;;;23.92;51.01;98909.44;7603338;32;38719;-76
2022/08/15 06:26:11;;;;;;;8.50;5.60;;;;;;;24.07;50.47;98904.81;7619823;32;38020;-75
2022/08/15 06:30:57;;;;;;;9.95;5.90;;;;;;;24.41;49.67;98896.34;7632743;32;40092;-75
2022/08/15 06:35:51;;;;;;;9.88;6.07;;;;;;;24.49;48.19;98901.59;7620988;32;40098;-77
2022/08/15 06:40:42;;;;;;;10.30;6.32;;;;;;;24.92;47.23;98892.69;7632205;32;38353;-80
2022/08/15 06:44:59;;;;;;;11.07;5.53;;;;;;;24.55;48.01;98900.03;7632907;32;37442;-78
2022/08/15 06:49:19;;;;;;;13.65;6.50;;;;;;;25.10;46.88;98901.94;7632626;32;40071;-78
2022/08/15 06:53:54;;;;;;;11.38;6.35;;;;;;;25.20;47.06;98897.63;7593956;32;39929;-78
2022/08/15 06:58:37;;;;;;;11.45;6.20;;;;;;;25.40;46.74;98897.31;7607000;32;39143;-75
2022/08/15 07:03:12;;;;;;;9.35;5.87;;;;;;;25.76;45.38;98906.56;7632148;32;37682;-76
2022/08/15 07:07:37;;;;;;;12.93;5.95;;;;;;;25.97;43.85;98894.66;7630509;32;39100;-77
2022/08/15 07:12:18;;;;;;;13.30;5.28;;;;;;;25.40;44.72;98906.47;7631256;32;40995;-76
2022/08/15 07:17:15;;;;;;;9.90;5.60;;;;;;;26.08;43.43;98900.28;7620976;32;38998;-75
2022/08/15 07:21:31;;;;;;;10.70;6.05;;;;;;;26.31;42.92;98899.06;7631642;32;37980;-76
2022/08/15 07:26:11;;;;;;;11.98;5.80;;;;;;;26.67;41.26;98896.25;7631376;32;39726;-77
2022/08/15 07:30:58;;;;;;;11.27;5.05;;;;;;;26.91;40.69;98892.59;7631417;32;40876;-79
2022/08/15 07:35:13;;;;;;;9.38;5.12;;;;;;;27.07;40.20;98894.16;7631612;32;37613;-78
2022/08/15 07:39:42;;;;;;;11.20;4.90;;;;;;;27.50;39.39;98896.78;7630758;32;37564;-77
2022/08/15 07:44:36;;;;;;;13.95;5.53;;;;;;;28.05;37.79;98893.25;7632278;32;39526;-76
2022/08/15 07:49:01;;;;;;;8.75;4.90;;;;;;;28.66;36.62;98877.91;7597296;32;40890;-78
2022/08/15 07:53:23;;;;;;;10.43;4.72;;;;;;;29.07;34.60;98877.03;7614344;32;38784;-77
2022/08/15 07:57:43;;;;;;;10.32;5.03;;;;;;;29.62;33.40;98865.94;7631747;32;36855;-77
2022/08/15 08:02:13;;;;;;;6.90;4.37;;;;;;;29.93;33.10;98872.28;7631797;32;39338;-76
2022/08/15 08:07:23;;;;;;;7.57;4.87;;;;;;;30.15;32.90;98875.56;7620551;32;40325;-76
2022/08/15 08:11:55;;;;;;;7.65;4.75;;;;;;;30.30;32.85;98871.28;7591293;32;37619;-78
2022/08/15 08:16:33;;;;;;;8.35;4.60;;;;;;;30.52;32.35;98868.88;7632571;32;38045;-77
2022/08/15 08:21:16;;;;;;;7.20;4.32;;;;;;;30.85;31.93;98868.28;7637274;32;40156;-77
2022/08/15 08:26:13;;;;;;;7.78;4.90;;;;;;;30.88;31.60;98870.22;7630942;32;40900;-79
2022/08/15 08:31:21;;;;;;;9.32;5.12;;;;;;;30.97;31.83;98873.28;7631007;32;38132;-78
2022/08/15 08:36:24;;;;;;;7.63;4.43;;;;;;;31.24;30.91;98870.31;7631513;32;36929;-77
2022/08/15 08:46:03;;;;;;;7.45;4.35;;;;;;;32.06;30.10;98877.38;7631687;32;40070;-77
2022/08/15 08:50:38;;;;;;;7.53;4.15;;;;;;;32.29;29.68;98873.56;7615115;32;37566;-77
2022/08/15 08:55:16;;;;;;;9.30;4.43;;;;;;;32.13;29.39;98874.38;7628194;32;36885;-77
2022/08/15 08:59:44;;;;;;;6.28;4.32;;;;;;;32.45;28.72;98873.53;7628959;32;39849;-77
2022/08/15 09:04:09;;;;;;;10.95;4.15;;;;;;;32.62;27.83;98870.72;7616840;32;39672;-78
2022/08/15 09:08:37;;;;;;;6.62;4.12;;;;;;;32.83;26.91;98847.56;7617865;32;37842;-78
2022/08/15 09:17:35;;;;;;;9.93;4.50;;;;;;;33.59;26.59;98854.59;7620254;32;39354;-77
2022/08/15 09:22:11;;;;;;;7.68;4.35;;;;;;;33.54;27.21;98855.16;7619614;32;40998;-80
2022/08/15 09:26:55;;;;;;;7.32;4.95;;;;;;;33.72;26.54;98853.81;7630900;32;38376;-83
2022/08/15 09:31:24;;;;;;;7.45;4.68;;;;;;;33.74;27.03;98838.00;7619421;32;37164;-75
2022/08/15 09:36:34;;;;;;;8.45;5.10;;;;;;;34.16;25.60;98834.22;7619163;32;39306;-77
2022/08/15 09:41:15;;;;;;;21.05;5.43;;;;;;;33.52;24.87;98843.53;7630588;32;39897;-77
2022/08/15 09:45:56;;;;;;;16.70;5.35;;;;;;;33.37;25.49;98831.09;7630179;32;38015;-76
2022/08/15 09:50:29;;;;;;;12.20;4.95;;;;;;;32.93;26.57;98838.00;7630321;32;38028;-76
2022/08/15 09:55:09;;;;;;;9.60;4.12;;;;;;;32.64;26.97;98840.03;7630175;32;39393;-77
2022/08/15 09:59:26;;;;;;;9.77;4.65;;;;;;;32.10;28.04;98833.78;7617766;32;40851;-78
2022/08/15 10:03:45;;;;;;;11.32;5.03;;;;;;;32.26;28.22;98820.91;7631601;32;38082;-76
2022/08/15 10:08:05;;;;;;;8.38;4.72;;;;;;;32.27;28.19;98823.28;7633439;32;39347;-79
2022/08/15 10:12:22;;;;;;;6.45;3.85;;;;;;;32.16;27.42;98817.91;7630816;32;39562;-78
2022/08/15 10:16:39;;;;;;;7.45;4.80;;;;;;;32.58;26.06;98805.91;7629989;32;39318;-77
2022/08/15 10:21:20;;;;;;;7.00;4.07;;;;;;;32.76;26.06;98805.44;7631113;32;36968;-79
2022/08/15 10:25:41;;;;;;;13.43;4.65;;;;;;;33.03;25.76;98795.78;7633438;32;37011;-79
2022/08/15 10:30:13;;;;;;;9.60;4.12;;;;;;;33.65;24.67;98784.97;7619692;32;40277;-79
2022/08/15 10:35:02;;;;;;;8.40;4.43;;;;;;;34.34;23.38;98789.16;7622168;32;41283;-76
2022/08/15 10:39:33;;;;;;;7.22;3.70;;;;;;;33.94;22.19;98786.09;7633067;32;38065;-79
2022/08/15 10:44:14;;;;;;;10.63;4.28;;;;;;;33.79;21.82;98785.75;7633019;32;37145;-77
2022/08/15 10:49:09;;;;;;;8.52;4.05;;;;;;;33.76;23.71;98795.19;7621700;32;40110;-78
2022/08/15 10:53:30;;;;;;;4.80;3.12;;;;;;;33.56;23.34;98782.03;7632866;32;40979;-82
2022/08/15 10:57:50;;;;;;;6.78;3.53;;;;;;;33.66;19.46;98769.59;7632846;32;37820;-73
2022/08/15 11:02:31;;;;;;;4.70;3.20;;;;;;;33.63;20.37;98769.72;7619790;32;37295;-74
2022/08/15 11:06:53;;;;;;;5.22;3.37;;;;;;;34.61;19.67;98767.97;7622132;32;40077;-75
2022/08/15 11:11:12;;;;;;;5.93;3.08;;;;;;;34.39;18.91;98762.31;7632111;32;39019;-75
2022/08/15 11:16:08;;;;;;;7.35;3.00;;;;;;;35.50;18.39;98757.31;7618627;32;37899;-77
2022/08/15 11:20:50;;;;;;;4.62;3.15;;;;;;;35.73;17.67;98762.44;7621374;32;37609;-76
2022/08/15 11:25:14;;;;;;;6.65;3.78;;;;;;;35.73;18.20;98758.81;7630837;32;39023;-76
2022/08/15 11:29:30;;;;;;;6.95;3.83;;;;;;;35.04;18.19;98755.06;7631076;32;39970;-76
2022/08/15 11:33:50;;;;;;;7.07;3.75;;;;;;;35.88;17.88;98754.12;7615539;32;38732;-75
2022/08/15 11:38:07;;;;;;;12.57;3.60;;;;;;;35.26;17.24;98740.88;7629538;32;37157;-76
2022/08/15 11:42:38;;;;;;;8.70;3.83;;;;;;;36.13;17.39;98740.88;7630567;32;39418;-77
2022/08/15 11:47:17;;;;;;;6.50;3.58;;;;;;;36.39;16.99;98747.06;7621056;32;347112;-76
2022/08/15 11:51:44;;;;;;;6.85;3.50;;;;;;;36.70;16.83;98736.78;7632312;32;37939;-76
2022/08/15 11:56:23;;;;;;;6.10;3.28;;;;;;;37.50;16.03;98720.41;7631726;32;37450;-77
2022/08/15 12:01:18;;;;;;;5.15;3.37;;;;;;;37.21;15.83;98733.19;7620839;32;39442;-77
2022/08/15 12:05:36;;;;;;;4.50;2.87;;;;;;;37.40;15.71;98714.78;7620946;32;39892;-76
2022/08/15 12:10:27;;;;;;;4.47;3.00;;;;;;;37.57;15.05;98709.47;7631873;32;38077;-77
2022/08/15 12:14:47;;;;;;;9.43;3.12;;;;;;;37.37;14.92;98710.03;7632128;32;37002;-76
2022/08/15 12:19:27;;;;;;;4.30;2.72;;;;;;;37.94;14.07;98699.91;7632087;32;40047;-77
2022/08/15 12:23:56;;;;;;;8.02;2.92;;;;;;;37.38;14.30;98703.09;7631827;32;40836;-76
2022/08/15 12:28:15;;;;;;;8.13;3.30;;;;;;;36.23;15.49;98716.19;7631753;32;39031;-77
2022/08/15 12:32:40;;;;;;;6.80;3.30;;;;;;;37.24;15.82;98705.84;7631721;32;37119;-76
2022/08/15 12:37:00;;;;;;;5.00;3.40;;;;;;;35.87;17.07;98712.06;7631739;32;39894;-77
2022/08/15 12:41:23;;;;;;;5.97;3.20;;;;;;;35.64;17.53;98713.44;7631789;32;39706;-77
2022/08/15 12:45:59;;;;;;;7.37;3.53;;;;;;;36.12;17.15;98713.81;7631315;32;38996;-77
2022/08/15 12:50:16;;;;;;;5.75;3.67;;;;;;;36.43;17.48;98695.84;7631520;32;37071;-77
2022/08/15 12:54:38;;;;;;;11.45;3.30;;;;;;;37.05;15.87;98691.72;7631518;32;40093;-77
2022/08/15 12:59:05;;;;;;;5.57;3.10;;;;;;;37.46;15.71;98677.16;7631373;32;39925;-77
2022/08/15 13:03:27;;;;;;;6.20;3.10;;;;;;;37.39;15.36;98673.44;7631308;32;38005;-76
2022/08/15 13:08:04;;;;;;;13.43;3.72;;;;;;;37.48;15.33;98672.59;7631079;32;37075;-77
2022/08/15 13:12:40;;;;;;;4.47;2.70;;;;;;;37.74;14.81;98675.75;7630045;32;40051;-76
2022/08/15 13:16:57;;;;;;;7.00;3.50;;;;;;;38.21;14.82;98667.63;7632141;32;40013;-75
2022/08/15 13:26:16;;;;;;;7.35;3.22;;;;;;;37.96;14.58;98654.69;7620239;32;36838;-76
2022/08/15 13:30:45;;;;;;;6.90;3.08;;;;;;;38.16;14.57;98662.63;7630593;32;38134;-76
2022/08/15 13:35:21;;;;;;;7.62;2.80;;;;;;;38.55;14.96;98644.66;7630038;32;40825;-76
2022/08/15 13:39:45;;;;;;;3.60;2.53;;;;;;;39.54;13.40;98637.37;7636494;32;38694;-76
2022/08/15 13:44:11;;;;;;;6.93;2.40;;;;;;;40.28;12.56;98630.44;7638748;32;37893;-77
2022/08/15 13:48:49;;;;;;;5.22;2.53;;;;;;;39.64;12.78;98632.31;7638423;32;39323;-79
2022/08/15 13:53:08;;;;;;;6.35;2.67;;;;;;;38.08;13.97;98630.09;7638574;32;40841;-76
2022/08/15 13:57:27;;;;;;;5.20;2.60;;;;;;;37.09;14.85;98631.91;7630270;32;38869;-77
2022/08/15 14:01:47;;;;;;;4.93;2.90;;;;;;;36.68;14.69;98631.44;7631924;32;36752;-77
2022/08/15 14:06:04;;;;;;;4.82;2.70;;;;;;;36.47;15.35;98636.84;7611649;32;39900;-77
2022/08/15 14:10:23;;;;;;;6.32;2.92;;;;;;;36.63;16.21;98636.47;7615246;32;40424;-78
2022/08/15 14:15:02;;;;;;;5.18;3.08;;;;;;;36.75;16.65;98633.94;7635249;32;37873;-77
2022/08/15 14:19:22;;;;;;;5.43;3.15;;;;;;;36.73;16.15;98631.59;7631628;32;37950;-76
2022/08/15 14:23:59;;;;;;;6.40;2.83;;;;;;;36.07;16.02;98640.69;7624378;32;39364;-77
2022/08/15 14:28:16;;;;;;;7.97;3.15;;;;;;;37.05;15.71;98642.63;7624423;32;40469;-77
2022/08/15 14:32:52;;;;;;;6.65;3.00;;;;;;;37.27;15.95;98631.03;7636013;32;38190;-77
2022/08/15 14:37:14;;;;;;;5.22;3.12;;;;;;;37.90;15.53;98628.22;7637604;32;36660;-76
2022/08/15 14:41:31;;;;;;;5.30;2.83;;;;;;;37.91;15.45;98624.09;7635548;32;39263;-77
2022/08/15 14:45:54;;;;;;;9.90;3.80;;;;;;;37.91;15.26;98619.22;7623693;32;39882;-77
2022/08/15 14:50:30;;;;;;;4.40;2.80;;;;;;;37.40;15.40;98618.16;7633360;32;39108;-76
2022/08/15 14:55:08;;;;;;;4.57;3.25;;;;;;;37.24;16.30;98629.16;7631799;32;38387;-77
2022/08/15 14:59:25;;;;;;;6.82;3.62;;;;;;;36.93;16.97;98635.91;7631986;32;39416;-76
2022/08/15 15:04:02;;;;;;;5.93;3.08;;;;;;;36.83;17.09;98626.66;7619551;32;41281;-76
2022/08/15 15:08:37;;;;;;;4.82;2.53;;;;;;;36.98;17.11;98627.53;7632489;32;37827;-77
2022/08/15 15:12:56;;;;;;;4.20;2.62;;;;;;;35.44;18.77;98648.69;7631660;32;37126;-77
2022/08/15 15:17:14;;;;;;;4.07;2.50;;;;;;;35.21;19.11;98652.84;7610551;32;39029;-75
2022/08/15 15:21:38;;;;;;;3.20;2.10;;;;;;;34.88;19.36;98654.16;7598801;32;40073;-74
2022/08/15 15:25:55;;;;;;;4.97;2.28;;;;;;;34.38;19.71;98656.09;7605897;32;38668;-75
2022/08/15 15:30:14;;;;;;;5.43;2.25;;;;;;;34.50;19.75;98654.44;7605946;32;37730;-78
2022/08/15 15:34:30;;;;;;;4.90;2.15;;;;;;;34.97;19.20;98647.75;7603584;32;40167;-77
2022/08/15 15:38:48;;;;;;;5.57;2.15;;;;;;;34.45;19.59;98663.53;7600996;32;40567;-76
2022/08/15 15:43:15;;;;;;;3.35;2.10;;;;;;;34.58;19.55;98656.53;7589949;32;38381;-77
2022/08/15 15:47:45;;;;;;;6.87;2.30;;;;;;;34.68;19.22;98654.50;7588159;32;37255;-77
2022/08/15 15:52:21;;;;;;;6.30;1.92;;;;;;;34.67;19.71;98658.59;7605469;32;39122;-78
2022/08/15 15:56:39;;;;;;;5.62;2.22;;;;;;;35.43;19.23;98656.41;7605252;32;39925;-77
2022/08/15 16:00:58;;;;;;;3.58;2.30;;;;;;;35.85;18.50;98661.50;7603312;32;37646;-77
2022/08/15 16:05:39;;;;;;;3.45;2.35;;;;;;;35.75;19.27;98664.81;7571288;32;37339;-78
2022/08/15 16:10:22;;;;;;;4.60;2.83;;;;;;;36.06;19.04;98654.06;7612699;32;39089;-77
2022/08/15 16:14:48;;;;;;;3.47;2.10;;;;;;;35.76;19.87;98655.84;7618206;32;40839;-77
2022/08/15 16:19:32;;;;;;;4.72;2.50;;;;;;;36.13;18.53;98661.47;7630282;32;37885;-77
2022/08/15 16:23:56;;;;;;;10.55;2.78;;;;;;;35.19;18.97;98659.00;7605714;32;37137;-78
2022/08/15 16:28:35;;;;;;;6.43;2.30;;;;;;;35.29;18.80;98656.97;7592755;32;37768;-77
2022/08/15 16:33:02;;;;;;;4.53;2.10;;;;;;;35.18;19.08;98658.19;7622389;32;40019;-77
2022/08/15 16:37:29;;;;;;;2.53;2.15;;;;;;;35.26;18.07;98660.78;7619545;32;37855;-77
2022/08/15 16:42:06;;;;;;;4.75;2.08;;;;;;;34.70;19.34;98656.88;7619704;32;37348;-77
2022/08/15 16:46:53;;;;;;;13.98;2.70;;;;;;;34.18;21.87;98664.88;7618644;32;39497;-77
2022/08/15 16:51:23;;;;;;;6.43;2.33;;;;;;;33.68;22.50;98661.81;7619336;32;40001;-78
2022/08/15 16:55:56;;;;;;;2.87;2.00;;;;;;;33.38;22.23;98671.69;7618730;32;38710;-78
2022/08/15 17:00:15;;;;;;;7.25;1.92;;;;;;;33.38;22.15;98668.88;7616760;32;37587;-75
2022/08/15 17:05:28;;;;;;;6.50;2.22;;;;;;;33.59;22.82;98658.87;7607357;32;40417;-76
2022/08/15 17:09:54;;;;;;;2.10;1.73;;;;;;;33.70;22.10;98667.00;7624651;32;40876;-76
2022/08/15 17:14:32;;;;;;;5.37;2.00;;;;;;;33.73;19.81;98669.69;7629556;32;38561;-76
2022/08/15 17:19:24;;;;;;;5.03;1.95;;;;;;;33.74;21.02;98676.94;7613522;32;38132;-74
2022/08/15 17:24:36;;;;;;;8.13;2.12;;;;;;;33.54;21.79;98677.19;7630257;32;40203;-73
2022/08/15 17:29:16;;;;;;;5.40;2.20;;;;;;;33.29;22.35;98678.03;7619340;32;40305;-74
2022/08/15 17:33:55;;;;;;;16.50;2.60;;;;;;;32.95;22.75;98685.13;7628581;32;37416;-74
2022/08/15 17:38:11;;;;;;;7.37;2.80;;;;;;;32.71;23.01;98693.13;7605656;32;37107;-74
2022/08/15 17:42:45;;;;;;;3.08;2.05;;;;;;;32.37;23.34;98700.94;7630082;32;40149;-72
2022/08/15 17:47:23;;;;;;;2.95;1.85;;;;;;;32.19;23.18;98707.06;7627683;32;41173;-75
2022/08/15 17:51:52;;;;;;;5.00;2.05;;;;;;;32.01;23.22;98704.72;7618229;32;38001;-74
2022/08/15 17:56:34;;;;;;;5.15;2.30;;;;;;;31.66;23.79;98709.25;7617313;32;37096;-74
2022/08/15 18:00:52;;;;;;;2.33;1.80;;;;;;;31.61;23.01;98721.84;7606279;32;39835;-74
2022/08/15 18:05:14;;;;;;;20.20;3.67;;;;;;;31.37;24.29;98726.84;7629623;32;39752;-75
2022/08/15 18:09:35;;;;;;;8.23;2.47;;;;;;;31.19;25.25;98732.91;7614185;32;38447;-74
2022/08/15 18:14:13;;;;;;;13.95;3.03;;;;;;;31.02;25.66;98734.09;7628269;32;38447;-74
2022/08/15 18:18:50;;;;;;;7.80;3.30;;;;;;;30.93;24.78;98740.34;7628936;32;40191;-75
2022/08/15 18:23:40;;;;;;;6.35;3.12;;;;;;;30.68;25.96;98750.06;7629513;32;39999;-75
2022/08/15 18:28:19;;;;;;;6.03;2.75;;;;;;;30.44;26.42;98757.81;7632032;32;37909;-75
2022/08/15 18:32:39;;;;;;;9.32;2.85;;;;;;;30.14;27.13;98755.94;7624660;32;37794;-77
2022/08/15 18:36:57;;;;;;;4.72;3.10;;;;;;;30.00;27.14;98756.19;7631401;32;39428;-76
2022/08/15 18:41:28;;;;;;;4.25;2.72;;;;;;;29.79;27.48;98760.97;7632603;32;40564;-76
2022/08/15 18:45:48;;;;;;;3.17;2.10;;;;;;;29.42;27.68;98768.34;7632451;32;38840;-74
2022/08/15 18:50:19;;;;;;;6.05;2.10;;;;;;;29.80;27.06;98773.00;7632019;32;38021;-75
2022/08/15 18:54:56;;;;;;;3.17;2.00;;;;;;;29.29;27.54;98782.19;7632206;32;39722;-74
2022/08/15 18:59:45;;;;;;;4.30;2.22;;;;;;;29.21;26.80;98780.69;7620457;32;40837;-73
2022/08/15 19:04:11;;;;;;;3.67;2.50;;;;;;;28.98;28.25;98790.59;7621272;32;37878;-73
2022/08/15 19:08:47;;;;;;;3.55;2.20;;;;;;;28.91;29.22;98798.31;7621153;32;37468;-76
2022/08/15 19:13:16;;;;;;;4.10;2.35;;;;;;;28.90;29.03;98805.91;7631370;32;39563;-75
2022/08/15 19:17:38;;;;;;;6.65;2.72;;;;;;;28.84;28.86;98814.00;7603994;32;39885;-74
2022/08/15 19:21:58;;;;;;;6.32;2.58;;;;;;;28.77;29.27;98808.47;7610996;32;37686;-74
2022/08/15 19:26:37;;;;;;;10.70;3.20;;;;;;;28.67;29.36;98808.62;7630632;32;37937;-74
2022/08/15 19:30:58;;;;;;;7.87;2.60;;;;;;;28.46;30.15;98816.03;7630642;32;40123;-74
2022/08/15 19:35:23;;;;;;;5.25;2.60;;;;;;;28.26;30.35;98818.63;7631657;32;40537;-75
2022/08/15 19:40:16;;;;;;;2.62;2.20;;;;;;;28.33;30.12;98812.94;7631907;32;38629;-74
2022/08/15 19:44:46;;;;;;;4.03;2.37;;;;;;;28.34;29.99;98808.94;7632344;32;37150;-74
2022/08/15 19:54:24;;;;;;;7.57;2.40;;;;;;;28.23;29.95;98830.66;7632071;32;40264;-77
2022/08/15 19:59:11;;;;;;;3.97;2.22;;;;;;;28.17;30.13;98826.72;7629911;32;39373;-75
2022/08/15 20:03:43;;;;;;;6.18;2.50;;;;;;;28.05;30.35;98825.22;7631039;32;37005;-75
2022/08/15 20:08:12;;;;;;;2.92;2.08;;;;;;;27.97;30.43;98826.47;7617276;32;40156;-76
2022/08/15 20:13:15;;;;;;;4.30;2.50;;;;;;;27.87;30.57;98834.53;7619687;32;40452;-75
2022/08/15 20:17:35;;;;;;;5.05;2.60;;;;;;;27.54;31.65;98835.97;7631280;32;38867;-76
2022/08/15 20:22:31;;;;;;;4.55;2.25;;;;;;;27.52;31.64;98835.59;7629980;32;37554;-75
2022/08/15 20:27:03;;;;;;;4.25;2.70;;;;;;;27.56;31.69;98839.16;7617795;32;40128;-75
2022/08/15 20:31:36;;;;;;;4.03;2.35;;;;;;;27.44;31.54;98848.84;7628632;32;40596;-75
2022/08/15 20:36:20;;;;;;;4.72;2.60;;;;;;;27.44;31.84;98842.44;7628768;32;38105;-74
2022/08/15 20:40:53;;;;;;;4.22;2.35;;;;;;;27.34;32.52;98850.47;7618860;32;37117;-75
2022/08/15 20:45:18;;;;;;;5.03;2.50;;;;;;;27.34;32.81;98846.91;7619414;32;40091;-74
2022/08/15 20:49:39;;;;;;;4.05;2.80;;;;;;;27.20;33.37;98856.13;7618280;32;41127;-73
2022/08/15 20:53:56;;;;;;;5.47;3.20;;;;;;;27.27;33.40;98855.28;7631551;32;37859;-73
2022/08/15 20:58:20;;;;;;;6.37;2.90;;;;;;;27.07;34.32;98857.78;7630665;32;36494;-73
2022/08/15 21:02:47;;;;;;;5.47;3.12;;;;;;;27.06;33.97;98864.56;7630771;32;39484;-72
2022/08/15 21:07:04;;;;;;;6.68;3.42;;;;;;;26.96;34.72;98874.63;7631411;32;40009;-74
2022/08/15 21:11:48;;;;;;;4.15;2.78;;;;;;;26.96;34.95;98869.81;7618321;32;38421;-72
2022/08/15 21:16:49;;;;;;;5.53;2.65;;;;;;;27.01;35.51;98881.78;7630708;32;36891;-73
2022/08/15 21:21:09;;;;;;;6.22;3.17;;;;;;;26.80;35.86;98889.03;7630282;32;40187;-72
2022/08/15 21:25:35;;;;;;;3.03;2.55;;;;;;;26.64;35.97;98930.59;7624830;32;40116;-74